createdAt,value
2022-12-11T00:01:07.786Z,99808.95
2022-12-11T00:03:44.494Z,99806.02
2022-12-11T00:06:14.377Z,99806.48
2022-12-11T00:08:42.888Z,99802.09
2022-12-11T00:11:12.611Z,99800.96
2022-12-11T00:13:42.716Z,99805.63
2022-12-11T00:16:11.531Z,99805.20
2022-12-11T00:18:40.109Z,99808.98
2022-12-11T00:21:11.189Z,99807.48
2022-12-11T00:23:39.511Z,99810.94
2022-12-11T00:26:09.241Z,99806.30
2022-12-11T00:28:37.429Z,99804.27
2022-12-11T00:31:06.929Z,99805.90
2022-12-11T00:33:35.213Z,99806.05
2022-12-11T00:36:03.953Z,99803.45
2022-12-11T00:38:34.344Z,99798.07
2022-12-11T00:41:02.561Z,99802.10
2022-12-11T00:43:31.195Z,99801.44
2022-12-11T00:45:59.522Z,99804.95
2022-12-11T00:48:27.819Z,99804.13
2022-12-11T00:50:56.186Z,99797.09
2022-12-11T00:53:24.441Z,99795.55
2022-12-11T00:55:52.687Z,99800.29
2022-12-11T00:58:20.945Z,99798.20
2022-12-11T01:00:49.735Z,99799.12
2022-12-11T01:03:18.070Z,99796.39
2022-12-11T01:05:52.923Z,99795.80
2022-12-11T01:08:21.830Z,99798.20
2022-12-11T01:10:50.252Z,99802.80
2022-12-11T01:13:18.591Z,99805.03
2022-12-11T01:15:46.798Z,99804.45
2022-12-11T01:18:15.304Z,99805.41
2022-12-11T01:20:44.112Z,99804.23
2022-12-11T01:23:13.432Z,99803.61
2022-12-11T01:25:45.266Z,99801.88
2022-12-11T01:28:14.047Z,99797.10
2022-12-11T01:30:43.305Z,99790.38
2022-12-11T01:33:11.692Z,99782.84
2022-12-11T01:35:40.786Z,99776.59
2022-12-11T01:38:10.155Z,99768.35
2022-12-11T01:40:38.450Z,99765.46
2022-12-11T01:43:08.708Z,99759.39
2022-12-11T01:45:40.302Z,99757.15
2022-12-11T01:48:11.596Z,99757.71
2022-12-11T01:50:44.344Z,99751.61
2022-12-11T01:53:15.319Z,99751.25
2022-12-11T01:55:45.547Z,99751.05
2022-12-11T01:58:14.163Z,99747.66
2022-12-11T02:00:42.635Z,99742.75
2022-12-11T02:03:10.968Z,99742.63
2022-12-11T02:05:39.527Z,99740.19
2022-12-11T02:08:09.195Z,99735.02
2022-12-11T02:10:48.203Z,99732.00
2022-12-11T02:13:20.343Z,99735.55
2022-12-11T02:15:51.220Z,99731.02
2022-12-11T02:18:27.049Z,99728.56
2022-12-11T02:21:00.785Z,99720.60
2022-12-11T02:23:46.978Z,99719.17
2022-12-11T02:26:29.254Z,99722.77
2022-12-11T02:28:58.991Z,99718.41
2022-12-11T02:31:32.485Z,99720.02
2022-12-11T02:34:04.270Z,99716.30
2022-12-11T02:36:35.146Z,99722.84
2022-12-11T02:39:04.862Z,99717.40
2022-12-11T02:41:33.730Z,99717.00
2022-12-11T02:44:03.619Z,99714.41
2022-12-11T02:46:33.106Z,99711.55
2022-12-11T02:49:03.939Z,99710.23
2022-12-11T02:51:34.622Z,99709.98
2022-12-11T02:54:06.552Z,99707.30
2022-12-11T02:56:38.594Z,99707.84
2022-12-11T02:59:10.490Z,99705.48
2022-12-11T03:01:38.835Z,99710.11
2022-12-11T03:04:07.321Z,99711.73
2022-12-11T03:06:38.183Z,99706.49
2022-12-11T03:09:07.703Z,99709.77
2022-12-11T03:11:35.978Z,99710.27
2022-12-11T03:14:04.416Z,99707.79
2022-12-11T03:16:35.820Z,99707.69
2022-12-11T03:19:12.587Z,99715.10
2022-12-11T03:21:45.637Z,99714.86
2022-12-11T03:24:18.001Z,99712.30
2022-12-11T03:26:56.009Z,99713.23
2022-12-11T03:29:28.189Z,99713.10
2022-12-11T03:31:59.230Z,99717.16
2022-12-11T03:34:31.413Z,99720.74
2022-12-11T03:37:00.659Z,99717.43
2022-12-11T03:39:32.451Z,99716.91
2022-12-11T03:42:02.068Z,99714.50
2022-12-11T03:44:30.585Z,99717.96
2022-12-11T03:47:01.422Z,99723.09
2022-12-11T03:49:32.158Z,99730.14
2022-12-11T03:52:01.013Z,99723.79
2022-12-11T03:54:30.043Z,99720.90
2022-12-11T03:56:59.571Z,99719.54
2022-12-11T03:59:27.836Z,99717.48
2022-12-11T04:01:56.288Z,99714.52
2022-12-11T04:04:24.629Z,99711.68
2022-12-11T04:06:53.031Z,99709.58
2022-12-11T04:09:21.549Z,99709.97
2022-12-11T04:11:49.802Z,99700.52
2022-12-11T04:14:36.474Z,99693.16
2022-12-11T04:17:04.786Z,99692.67
2022-12-11T04:19:51.291Z,99691.50
2022-12-11T04:22:38.246Z,99692.27
2022-12-11T04:25:08.918Z,99688.62
2022-12-11T04:27:52.312Z,99690.08
2022-12-11T04:30:22.262Z,99690.61
2022-12-11T04:32:50.970Z,99682.80
2022-12-11T04:35:19.842Z,99682.60
2022-12-11T04:37:48.440Z,99686.23
2022-12-11T04:40:18.562Z,99685.95
2022-12-11T04:42:46.945Z,99686.91
2022-12-11T04:45:15.196Z,99684.73
2022-12-11T04:47:43.874Z,99684.17
2022-12-11T04:50:14.058Z,99684.61
2022-12-11T04:52:42.425Z,99680.48
2022-12-11T04:55:11.763Z,99678.92
2022-12-11T04:57:40.272Z,99673.60
2022-12-11T05:00:12.307Z,99669.27
2022-12-11T05:02:42.313Z,99665.20
2022-12-11T05:05:11.960Z,99660.05
2022-12-11T05:07:41.250Z,99654.96
2022-12-11T05:10:10.894Z,99647.91
2022-12-11T05:12:39.291Z,99647.35
2022-12-11T05:15:09.779Z,99643.33
2022-12-11T05:17:38.645Z,99639.47
2022-12-11T05:20:09.876Z,99639.11
2022-12-11T05:22:38.874Z,99633.52
2022-12-11T05:25:09.212Z,99630.55
2022-12-11T05:27:37.775Z,99622.93
2022-12-11T05:30:09.527Z,99622.38
2022-12-11T05:32:37.856Z,99614.44
2022-12-11T05:35:07.509Z,99613.13
2022-12-11T05:37:35.776Z,99610.24
2022-12-11T05:40:05.969Z,99611.79
2022-12-11T05:42:34.522Z,99606.16
2022-12-11T05:45:02.885Z,99609.10
2022-12-11T05:47:31.997Z,99598.66
2022-12-11T05:50:00.177Z,99592.78
2022-12-11T05:52:28.488Z,99589.53
2022-12-11T05:54:56.740Z,99592.34
2022-12-11T05:57:24.997Z,99589.55
2022-12-11T05:59:53.206Z,99588.92
2022-12-11T06:02:21.575Z,99587.75
2022-12-11T06:04:50.083Z,99587.56
2022-12-11T06:07:18.525Z,99589.23
2022-12-11T06:09:47.980Z,99590.08
2022-12-11T06:12:16.325Z,99593.16
2022-12-11T06:14:44.671Z,99595.95
2022-12-11T06:17:12.908Z,99594.57
2022-12-11T06:19:41.284Z,99599.23
2022-12-11T06:22:09.657Z,99603.47
2022-12-11T06:24:38.109Z,99602.79
2022-12-11T06:27:06.491Z,99607.86
2022-12-11T06:29:35.196Z,99612.52
2022-12-11T06:32:03.967Z,99614.38
2022-12-11T06:34:32.382Z,99613.56
2022-12-11T06:37:00.859Z,99612.66
2022-12-11T06:39:29.192Z,99611.75
2022-12-11T06:41:57.429Z,99612.07
2022-12-11T06:44:25.767Z,99608.52
2022-12-11T06:46:53.980Z,99610.29
2022-12-11T06:49:22.732Z,99609.38
2022-12-11T06:51:50.911Z,99610.57
2022-12-11T06:54:19.232Z,99611.59
2022-12-11T06:56:47.575Z,99613.39
2022-12-11T06:59:15.827Z,99615.20
2022-12-11T07:01:53.633Z,99611.68
2022-12-11T07:04:24.166Z,99612.23
2022-12-11T07:06:52.729Z,99611.17
2022-12-11T07:09:22.257Z,99609.19
2022-12-11T07:11:50.930Z,99606.11
2022-12-11T07:14:19.458Z,99607.02
2022-12-11T07:16:47.758Z,99602.42
2022-12-11T07:19:16.075Z,99599.65
2022-12-11T07:21:44.518Z,99598.34
2022-12-11T07:24:12.743Z,99596.84
2022-12-11T07:26:40.975Z,99593.21
2022-12-11T07:29:09.294Z,99587.30
2022-12-11T07:31:37.547Z,99582.59
2022-12-11T07:34:07.207Z,99582.67
2022-12-11T07:36:35.475Z,99577.00
2022-12-11T07:39:03.843Z,99575.00
2022-12-11T07:41:32.070Z,99573.77
2022-12-11T07:44:00.983Z,99571.95
2022-12-11T07:46:31.147Z,99565.23
2022-12-11T07:49:00.621Z,99563.02
2022-12-11T07:51:30.939Z,99567.84
2022-12-11T07:54:00.574Z,99563.33
2022-12-11T07:56:29.744Z,99562.64
2022-12-11T07:58:59.559Z,99562.65
2022-12-11T08:01:29.413Z,99561.50
2022-12-11T08:03:58.061Z,99557.21
2022-12-11T08:06:27.638Z,99557.24
2022-12-11T08:08:56.248Z,99558.23
2022-12-11T08:11:24.899Z,99557.81
2022-12-11T08:13:53.195Z,99556.00
2022-12-11T08:16:21.579Z,99552.77
2022-12-11T08:18:50.003Z,99547.39
2022-12-11T08:21:19.950Z,99546.29
2022-12-11T08:23:48.311Z,99548.44
2022-12-11T08:26:18.310Z,99544.86
2022-12-11T08:28:46.671Z,99546.79
2022-12-11T08:31:16.818Z,99547.27
2022-12-11T08:33:45.417Z,99543.68
2022-12-11T08:36:16.197Z,99537.39
2022-12-11T08:38:46.005Z,99536.78
2022-12-11T08:41:15.400Z,99536.46
2022-12-11T08:43:44.370Z,99528.45
2022-12-11T08:46:13.079Z,99525.89
2022-12-11T08:48:42.603Z,99528.39
2022-12-11T08:51:14.292Z,99535.00
2022-12-11T08:53:42.782Z,99538.57
2022-12-11T08:56:12.776Z,99532.28
2022-12-11T08:58:41.112Z,99527.20
2022-12-11T09:01:11.666Z,99528.21
2022-12-11T09:03:40.388Z,99530.92
2022-12-11T09:06:13.276Z,99527.11
2022-12-11T09:08:44.929Z,99523.55
2022-12-11T09:11:18.775Z,99521.92
2022-12-11T09:13:47.798Z,99510.09
2022-12-11T09:16:17.853Z,99507.05
2022-12-11T09:18:47.811Z,99511.27
2022-12-11T09:21:18.074Z,99504.86
2022-12-11T09:23:46.819Z,99499.48
2022-12-11T09:26:17.067Z,99486.21
2022-12-11T09:28:47.294Z,99478.74
2022-12-11T09:31:17.984Z,99478.02
2022-12-11T09:33:47.069Z,99478.04
2022-12-11T09:36:15.320Z,99471.85
2022-12-11T09:38:44.327Z,99464.73
2022-12-11T09:41:29.987Z,99458.31
2022-12-11T09:44:03.154Z,99458.09
2022-12-11T09:46:34.282Z,99450.38
2022-12-11T09:49:04.282Z,99445.13
2022-12-11T09:51:39.469Z,99447.52
2022-12-11T09:54:09.483Z,99439.52
2022-12-11T09:56:45.539Z,99433.59
2022-12-11T09:59:22.958Z,99428.46
2022-12-11T10:01:54.435Z,99423.58
2022-12-11T10:04:36.334Z,99422.48
2022-12-11T10:07:11.637Z,99420.33
2022-12-11T10:09:46.676Z,99425.91
2022-12-11T10:12:26.108Z,99425.48
2022-12-11T10:15:05.535Z,99416.73
2022-12-11T10:17:34.903Z,99414.20
2022-12-11T10:20:17.718Z,99411.88
2022-12-11T10:22:46.334Z,99403.61
2022-12-11T10:25:20.855Z,99399.02
2022-12-11T10:27:50.340Z,99394.15
2022-12-11T10:30:22.747Z,99396.66
2022-12-11T10:32:58.166Z,99396.77
2022-12-11T10:35:31.419Z,99391.93
2022-12-11T10:38:11.943Z,99387.92
2022-12-11T10:40:41.777Z,99386.73
2022-12-11T10:43:10.463Z,99385.79
2022-12-11T10:45:38.698Z,99378.40
2022-12-11T10:48:11.233Z,99385.40
2022-12-11T10:50:40.571Z,99378.70
2022-12-11T10:53:20.962Z,99371.73
2022-12-11T10:55:49.678Z,99362.56
2022-12-11T10:58:19.478Z,99358.83
2022-12-11T11:00:57.565Z,99353.27
2022-12-11T11:03:27.233Z,99352.42
2022-12-11T11:06:04.927Z,99347.69
2022-12-11T11:08:40.790Z,99340.97
2022-12-11T11:11:22.100Z,99333.41
2022-12-11T11:13:50.324Z,99332.16
2022-12-11T11:16:20.880Z,99328.18
2022-12-11T11:18:54.489Z,99325.83
2022-12-11T11:21:25.893Z,99320.15
2022-12-11T11:23:54.795Z,99319.48
2022-12-11T11:26:23.265Z,99315.23
2022-12-11T11:28:53.240Z,99315.98
2022-12-11T11:31:22.964Z,99320.33
2022-12-11T11:33:56.029Z,99314.51
2022-12-11T11:36:26.511Z,99311.95
2022-12-11T11:39:16.953Z,99311.45
2022-12-11T11:41:49.558Z,99305.70
2022-12-11T11:44:22.132Z,99302.45
2022-12-11T11:46:56.002Z,99301.65
2022-12-11T11:49:32.045Z,99298.98
2022-12-11T11:52:04.196Z,99297.77
2022-12-11T11:54:34.875Z,99297.98
2022-12-11T11:57:13.798Z,99295.64
2022-12-11T11:59:44.641Z,99299.05
2022-12-11T12:02:15.948Z,99296.77
2022-12-11T12:04:45.087Z,99295.51
2022-12-11T12:07:27.354Z,99298.21
2022-12-11T12:09:59.702Z,99295.14
2022-12-11T12:12:34.697Z,99294.73
2022-12-11T12:15:27.846Z,99292.70
2022-12-11T12:17:57.516Z,99292.02
2022-12-11T12:20:33.285Z,99291.22
2022-12-11T12:23:13.575Z,99291.05
2022-12-11T12:25:45.413Z,99293.77
2022-12-11T12:28:21.141Z,99287.36
2022-12-11T12:30:59.905Z,99287.13
2022-12-11T12:33:40.736Z,99286.30
2022-12-11T12:36:17.245Z,99287.60
2022-12-11T12:38:54.713Z,99286.16
2022-12-11T12:41:28.110Z,99279.16
2022-12-11T12:44:13.869Z,99278.68
2022-12-11T12:46:53.109Z,99274.34
2022-12-11T12:49:30.812Z,99271.33
2022-12-11T12:51:59.883Z,99266.07
2022-12-11T12:54:29.782Z,99263.98
2022-12-11T12:56:59.137Z,99267.63
2022-12-11T12:59:28.602Z,99263.20
2022-12-11T13:01:58.629Z,99256.48
2022-12-11T13:04:54.844Z,99247.31
2022-12-11T13:07:27.890Z,99244.43
2022-12-11T13:10:03.598Z,99244.70
2022-12-11T13:12:42.271Z,99245.20
2022-12-11T13:15:32.651Z,99245.98
2022-12-11T13:18:02.440Z,99251.38
2022-12-11T13:20:32.110Z,99253.72
2022-12-11T13:23:17.913Z,99253.77
2022-12-11T13:25:52.188Z,99251.15
2022-12-11T13:28:30.690Z,99252.66
2022-12-11T13:31:05.632Z,99260.68
2022-12-11T13:33:40.377Z,99260.11
2022-12-11T13:36:32.410Z,99260.94
2022-12-11T13:39:03.964Z,99263.60
2022-12-11T13:41:34.857Z,99263.90
2022-12-11T13:44:05.478Z,99262.83
2022-12-11T13:46:36.777Z,99264.25
2022-12-11T13:49:06.595Z,99266.66
2022-12-11T13:51:37.376Z,99259.52
2022-12-11T13:54:17.079Z,99255.47
2022-12-11T13:56:57.567Z,99245.27
2022-12-11T13:59:29.083Z,99242.05
2022-12-11T14:02:00.298Z,99242.64
2022-12-11T14:04:29.213Z,99245.06
2022-12-11T14:06:57.875Z,99248.95
2022-12-11T14:09:27.468Z,99249.83
2022-12-11T14:11:58.994Z,99250.41
2022-12-11T14:14:34.753Z,99247.84
2022-12-11T14:17:03.650Z,99247.34
2022-12-11T14:19:32.366Z,99245.10
2022-12-11T14:22:02.150Z,99242.80
2022-12-11T14:24:31.403Z,99241.63
2022-12-11T14:26:59.933Z,99236.33
2022-12-11T14:29:30.502Z,99233.05
2022-12-11T14:32:01.323Z,99231.77
2022-12-11T14:34:31.966Z,99233.49
2022-12-11T14:37:04.185Z,99237.73
2022-12-11T14:39:35.552Z,99237.39
2022-12-11T14:42:06.813Z,99235.02
2022-12-11T14:44:45.749Z,99227.83
2022-12-11T14:47:16.663Z,99220.96
2022-12-11T14:49:47.818Z,99221.57
2022-12-11T14:52:19.509Z,99226.90
2022-12-11T14:54:50.978Z,99226.15
2022-12-11T14:57:21.470Z,99227.44
2022-12-11T14:59:52.474Z,99227.26
2022-12-11T15:02:27.214Z,99227.77
2022-12-11T15:05:14.298Z,99227.39
2022-12-11T15:07:44.401Z,99227.14
2022-12-11T15:10:28.166Z,99223.42
2022-12-11T15:12:59.419Z,99218.56
2022-12-11T15:15:28.355Z,99223.46
2022-12-11T15:17:57.090Z,99227.86
2022-12-11T15:20:28.045Z,99235.09
2022-12-11T15:22:58.625Z,99241.29
2022-12-11T15:25:28.316Z,99239.63
2022-12-11T15:27:59.109Z,99235.81
2022-12-11T15:30:33.872Z,99236.63
2022-12-11T15:33:19.258Z,99236.42
2022-12-11T15:35:59.174Z,99241.33
2022-12-11T15:38:40.153Z,99237.17
2022-12-11T15:41:14.334Z,99238.23
2022-12-11T15:43:42.997Z,99241.39
2022-12-11T15:46:11.538Z,99241.19
2022-12-11T15:48:39.905Z,99241.95
2022-12-11T15:51:08.652Z,99239.98
2022-12-11T15:53:37.305Z,99238.44
2022-12-11T15:56:06.659Z,99235.27
2022-12-11T15:58:36.032Z,99238.48
2022-12-11T16:01:04.775Z,99232.64
2022-12-11T16:03:33.072Z,99234.63
2022-12-11T16:06:01.340Z,99233.27
2022-12-11T16:08:30.170Z,99235.06
2022-12-11T16:10:58.492Z,99235.55
2022-12-11T16:13:26.865Z,99230.80
2022-12-11T16:15:55.118Z,99226.48
2022-12-11T16:18:24.136Z,99227.21
2022-12-11T16:20:52.774Z,99215.58
2022-12-11T16:23:21.615Z,99212.84
2022-12-11T16:25:50.459Z,99216.91
2022-12-11T16:28:20.778Z,99220.34
2022-12-11T16:30:49.599Z,99223.75
2022-12-11T16:33:18.057Z,99229.45
2022-12-11T16:35:46.783Z,99226.88
2022-12-11T16:38:16.021Z,99223.80
2022-12-11T16:40:44.896Z,99229.04
2022-12-11T16:43:13.335Z,99229.34
2022-12-11T16:45:43.598Z,99232.41
2022-12-11T16:48:11.806Z,99232.73
2022-12-11T16:50:41.083Z,99231.39
2022-12-11T16:53:09.729Z,99228.40
2022-12-11T16:55:40.330Z,99228.17
2022-12-11T16:58:08.939Z,99230.45
2022-12-11T17:00:38.360Z,99232.66
2022-12-11T17:03:06.660Z,99237.34
2022-12-11T17:05:34.943Z,99235.82
2022-12-11T17:08:03.934Z,99237.46
2022-12-11T17:10:32.169Z,99238.16
2022-12-11T17:13:00.479Z,99242.30
2022-12-11T17:15:28.988Z,99240.05
2022-12-11T17:17:57.219Z,99233.06
2022-12-11T17:20:25.496Z,99230.40
2022-12-11T17:22:54.361Z,99225.19
2022-12-11T17:25:22.607Z,99223.27
2022-12-11T17:27:51.443Z,99218.40
2022-12-11T17:30:19.952Z,99220.66
2022-12-11T17:32:48.622Z,99217.20
2022-12-11T17:35:17.147Z,99220.49
2022-12-11T17:37:45.708Z,99223.25
2022-12-11T17:40:13.946Z,99223.49
2022-12-11T17:42:43.407Z,99217.71
2022-12-11T17:45:13.190Z,99216.80
2022-12-11T17:47:42.073Z,99212.30
2022-12-11T17:50:12.335Z,99213.70
2022-12-11T17:52:44.313Z,99217.41
2022-12-11T17:55:13.718Z,99221.45
2022-12-11T17:57:42.407Z,99226.35
2022-12-11T18:00:12.819Z,99233.92
2022-12-11T18:02:40.993Z,99239.27
2022-12-11T18:05:09.882Z,99245.00
2022-12-11T18:07:38.655Z,99249.26
2022-12-11T18:10:08.082Z,99250.11
2022-12-11T18:12:36.941Z,99248.67
2022-12-11T18:15:07.303Z,99242.65
2022-12-11T18:17:35.548Z,99240.88
2022-12-11T18:20:04.818Z,99234.67
2022-12-11T18:22:33.168Z,99234.79
2022-12-11T18:25:05.080Z,99234.23
2022-12-11T18:27:38.653Z,99233.10
2022-12-11T18:30:11.903Z,99231.02
2022-12-11T18:32:40.256Z,99223.81
2022-12-11T18:35:09.570Z,99226.17
2022-12-11T18:37:38.367Z,99229.81
2022-12-11T18:40:09.438Z,99229.39
2022-12-11T18:42:37.766Z,99231.46
2022-12-11T18:45:07.928Z,99233.61
2022-12-11T18:47:37.139Z,99233.55
2022-12-11T18:50:08.211Z,99230.21
2022-12-11T18:52:36.795Z,99221.81
2022-12-11T18:55:06.508Z,99218.58
2022-12-11T18:57:34.788Z,99210.95
2022-12-11T19:00:06.812Z,99205.20
2022-12-11T19:02:35.537Z,99207.35
2022-12-11T19:05:04.986Z,99205.45
2022-12-11T19:07:33.312Z,99206.89
2022-12-11T19:10:01.599Z,99202.38
2022-12-11T19:12:29.944Z,99200.48
2022-12-11T19:14:58.174Z,99201.16
2022-12-11T19:17:26.555Z,99199.91
2022-12-11T19:19:54.813Z,99200.91
2022-12-11T19:22:23.100Z,99197.70
2022-12-11T19:24:51.765Z,99196.56
2022-12-11T19:27:20.265Z,99196.58
2022-12-11T19:29:48.657Z,99189.65
2022-12-11T19:32:17.217Z,99186.62
2022-12-11T19:34:45.479Z,99184.29
2022-12-11T19:37:13.920Z,99184.62
2022-12-11T19:39:42.273Z,99182.64
2022-12-11T19:42:10.794Z,99182.48
2022-12-11T19:44:39.039Z,99183.49
2022-12-11T19:47:07.355Z,99182.38
2022-12-11T19:49:35.658Z,99189.90
2022-12-11T19:52:04.259Z,99194.14
2022-12-11T19:54:32.528Z,99196.02
2022-12-11T19:57:00.788Z,99203.65
2022-12-11T19:59:29.003Z,99207.94
2022-12-11T20:01:57.344Z,99212.17
2022-12-11T20:04:25.662Z,99209.39
2022-12-11T20:06:54.006Z,99207.83
2022-12-11T20:09:23.646Z,99208.23
2022-12-11T20:11:52.777Z,99207.07
2022-12-11T20:14:26.052Z,99204.16
2022-12-11T20:17:14.481Z,99196.00
2022-12-11T20:19:43.885Z,99199.38
2022-12-11T20:22:12.882Z,99196.73
2022-12-11T20:24:41.365Z,99194.21
2022-12-11T20:27:11.863Z,99194.42
2022-12-11T20:29:40.432Z,99194.58
2022-12-11T20:32:10.586Z,99196.41
2022-12-11T20:34:38.989Z,99201.06
2022-12-11T20:37:07.672Z,99195.75
2022-12-11T20:39:36.780Z,99196.95
2022-12-11T20:42:12.095Z,99191.17
2022-12-11T20:44:48.711Z,99181.52
2022-12-11T20:47:22.178Z,99185.08
2022-12-11T20:49:50.984Z,99181.02
2022-12-11T20:52:19.624Z,99178.82
2022-12-11T20:54:47.948Z,99182.48
2022-12-11T20:57:16.491Z,99186.90
2022-12-11T20:59:45.409Z,99188.13
2022-12-11T21:02:13.799Z,99195.39
2022-12-11T21:04:42.203Z,99195.11
2022-12-11T21:07:10.947Z,99194.56
2022-12-11T21:09:39.839Z,99193.34
2022-12-11T21:12:08.594Z,99185.98
2022-12-11T21:14:38.188Z,99180.88
2022-12-11T21:17:06.588Z,99177.39
2022-12-11T21:19:35.079Z,99177.64
2022-12-11T21:22:05.230Z,99184.60
2022-12-11T21:24:34.451Z,99185.96
2022-12-11T21:27:02.850Z,99186.48
2022-12-11T21:29:31.226Z,99187.21
2022-12-11T21:31:59.595Z,99183.52
2022-12-11T21:34:28.053Z,99187.41
2022-12-11T21:36:58.629Z,99191.91
2022-12-11T21:39:28.058Z,99191.71
2022-12-11T21:41:57.479Z,99190.57
2022-12-11T21:45:31.422Z,99187.20
2022-12-11T21:47:14.255Z,99184.70
2022-12-11T21:49:45.058Z,99183.79
2022-12-11T21:52:13.529Z,99185.89
2022-12-11T21:54:43.017Z,99192.48
2022-12-11T21:57:11.236Z,99194.18
2022-12-11T21:59:39.481Z,99197.84
2022-12-11T22:02:10.176Z,99196.23
2022-12-11T22:04:38.740Z,99195.31
2022-12-11T22:07:07.047Z,99193.19
2022-12-11T22:09:35.651Z,99197.20
2022-12-11T22:12:04.540Z,99194.58
2022-12-11T22:14:34.487Z,99190.94
2022-12-11T22:17:02.992Z,99191.06
2022-12-11T22:19:32.834Z,99193.61
2022-12-11T22:22:01.485Z,99193.09
2022-12-11T22:24:29.807Z,99197.15
2022-12-11T22:26:58.895Z,99204.19
2022-12-11T22:29:27.176Z,99204.13
2022-12-11T22:31:55.773Z,99209.45
2022-12-11T22:34:24.091Z,99207.71
2022-12-11T22:36:52.498Z,99204.95
2022-12-11T22:39:20.763Z,99198.91
2022-12-11T22:41:49.003Z,99198.11
2022-12-11T22:44:19.804Z,99192.45
2022-12-11T22:46:50.256Z,99195.65
2022-12-11T22:49:19.282Z,99197.54
2022-12-11T22:51:48.705Z,99199.02
2022-12-11T22:54:17.110Z,99195.52
2022-12-11T22:56:45.483Z,99191.09
2022-12-11T22:59:13.849Z,99179.83
2022-12-11T23:01:42.074Z,99178.89
2022-12-11T23:04:10.227Z,99183.33
2022-12-11T23:06:38.471Z,99189.73
2022-12-11T23:09:06.880Z,99190.77
2022-12-11T23:11:37.103Z,99190.80
2022-12-11T23:14:08.006Z,99189.31
2022-12-11T23:16:36.630Z,99190.23
2022-12-11T23:19:05.202Z,99187.73
2022-12-11T23:21:33.676Z,99188.65
2022-12-11T23:24:03.493Z,99193.60
2022-12-11T23:26:32.421Z,99198.27
2022-12-11T23:29:00.878Z,99195.32
2022-12-11T23:31:29.795Z,99196.92
2022-12-11T23:33:58.166Z,99197.23
2022-12-11T23:36:27.672Z,99196.64
2022-12-11T23:38:56.001Z,99195.45
2022-12-11T23:41:24.542Z,99190.20
2022-12-11T23:43:52.888Z,99187.94
2022-12-11T23:46:23.035Z,99192.46
2022-12-11T23:48:51.972Z,99191.02
2022-12-11T23:51:21.465Z,99199.05
2022-12-11T23:53:49.915Z,99197.10
2022-12-11T23:56:19.726Z,99195.35
2022-12-11T23:58:48.159Z,99189.80
